createdAt,value
2023-01-11T00:00:59.162Z,98860.29
2023-01-11T00:02:01.109Z,98857.95
2023-01-11T00:03:05.114Z,98862.08
2023-01-11T00:04:07.022Z,98863.34
2023-01-11T00:05:09.728Z,98860.58
2023-01-11T00:06:12.212Z,98861.13
2023-01-11T00:07:14.006Z,98862.00
2023-01-11T00:08:16.176Z,98863.67
2023-01-11T00:09:18.127Z,98863.06
2023-01-11T00:10:21.791Z,98862.98
2023-01-11T00:11:23.738Z,98863.58
2023-01-11T00:12:25.659Z,98867.01
2023-01-11T00:13:28.605Z,98864.78
2023-01-11T00:14:30.566Z,98867.14
2023-01-11T00:15:32.704Z,98866.29
2023-01-11T00:16:34.503Z,98864.64
2023-01-11T00:17:36.596Z,98866.33
2023-01-11T00:18:39.551Z,98866.80
2023-01-11T00:19:41.867Z,98868.79
2023-01-11T00:20:44.568Z,98866.79
2023-01-11T00:21:50.163Z,98867.49
2023-01-11T00:22:52.718Z,98865.20
2023-01-11T00:23:54.713Z,98866.26
2023-01-11T00:24:56.526Z,98865.98
2023-01-11T00:25:58.413Z,98864.86
2023-01-11T00:27:00.198Z,98866.73
2023-01-11T00:28:02.445Z,98865.08
2023-01-11T00:29:04.584Z,98866.70
2023-01-11T00:30:07.086Z,98868.23
2023-01-11T00:31:09.566Z,98864.44
2023-01-11T00:32:11.649Z,98866.21
2023-01-11T00:33:13.541Z,98867.65
2023-01-11T00:34:15.489Z,98864.51
2023-01-11T00:35:17.351Z,98862.28
2023-01-11T00:36:19.314Z,98862.01
2023-01-11T00:37:21.827Z,98860.91
2023-01-11T00:38:42.898Z,98863.34
2023-01-11T00:39:44.964Z,98866.61
2023-01-11T00:40:46.794Z,98867.67
2023-01-11T00:42:07.427Z,98866.77
2023-01-11T00:43:28.692Z,98869.73
2023-01-11T00:44:49.705Z,98874.09
2023-01-11T00:46:10.614Z,98878.83
2023-01-11T00:47:36.117Z,98879.29
2023-01-11T00:48:38.169Z,98881.06
2023-01-11T00:49:40.268Z,98881.92
2023-01-11T00:50:42.273Z,98887.48
2023-01-11T00:51:44.328Z,98883.77
2023-01-11T00:52:46.284Z,98884.21
2023-01-11T00:53:48.869Z,98882.65
2023-01-11T00:54:51.086Z,98881.63
2023-01-11T00:55:52.971Z,98883.71
2023-01-11T00:56:54.856Z,98880.54
2023-01-11T00:57:56.724Z,98880.99
2023-01-11T00:58:58.616Z,98880.42
2023-01-11T01:00:00.669Z,98878.99
2023-01-11T01:01:07.466Z,98881.42
2023-01-11T01:02:11.293Z,98879.79
2023-01-11T01:03:13.507Z,98881.48
2023-01-11T01:04:15.591Z,98879.38
2023-01-11T01:05:18.897Z,98880.38
2023-01-11T01:06:20.808Z,98880.19
2023-01-11T01:07:23.031Z,98880.79
2023-01-11T01:08:24.973Z,98882.61
2023-01-11T01:09:26.993Z,98884.64
2023-01-11T01:10:28.734Z,98888.11
2023-01-11T01:11:30.624Z,98888.29
2023-01-11T01:12:53.818Z,98887.54
2023-01-11T01:14:15.727Z,98885.89
2023-01-11T01:15:17.757Z,98884.27
2023-01-11T01:16:19.834Z,98883.73
2023-01-11T01:17:21.660Z,98882.69
2023-01-11T01:18:23.904Z,98881.23
2023-01-11T01:19:28.213Z,98880.16
2023-01-11T01:20:30.169Z,98879.67
2023-01-11T01:21:32.009Z,98879.73
2023-01-11T01:22:34.517Z,98877.21
2023-01-11T01:23:36.821Z,98877.98
2023-01-11T01:24:38.738Z,98876.30
2023-01-11T01:25:40.576Z,98876.87
2023-01-11T01:26:42.879Z,98875.79
2023-01-11T01:27:45.247Z,98876.50
2023-01-11T01:28:47.604Z,98875.23
2023-01-11T01:29:49.920Z,98872.93
2023-01-11T01:30:52.533Z,98871.05
2023-01-11T01:31:54.376Z,98873.34
2023-01-11T01:32:56.372Z,98873.25
2023-01-11T01:33:58.836Z,98872.23
2023-01-11T01:35:00.884Z,98871.41
2023-01-11T01:36:04.213Z,98868.22
2023-01-11T01:37:12.067Z,98871.91
2023-01-11T01:38:14.047Z,98867.84
2023-01-11T01:39:16.139Z,98867.15
2023-01-11T01:40:18.268Z,98866.00
2023-01-11T01:41:20.207Z,98865.59
2023-01-11T01:42:24.127Z,98863.61
2023-01-11T01:43:46.788Z,98867.64
2023-01-11T01:45:03.369Z,98862.07
2023-01-11T01:46:05.378Z,98863.58
2023-01-11T01:47:07.441Z,98859.45
2023-01-11T01:48:15.323Z,98858.05
2023-01-11T01:49:18.185Z,98857.73
2023-01-11T01:50:20.185Z,98857.77
2023-01-11T01:51:32.330Z,98854.34
2023-01-11T01:52:36.427Z,98852.77
2023-01-11T01:53:43.456Z,98848.69
2023-01-11T01:54:49.342Z,98849.10
2023-01-11T01:56:01.627Z,98847.44
2023-01-11T01:57:19.686Z,98841.97
2023-01-11T01:58:33.056Z,98841.44
2023-01-11T01:59:35.804Z,98839.97
2023-01-11T02:00:44.619Z,98837.18
2023-01-11T02:01:49.921Z,98838.98
2023-01-11T02:02:53.490Z,98841.67
2023-01-11T02:03:55.814Z,98839.48
2023-01-11T02:04:59.180Z,98839.16
2023-01-11T02:06:01.301Z,98838.96
2023-01-11T02:07:15.922Z,98839.61
2023-01-11T02:08:27.870Z,98838.44
2023-01-11T02:09:48.914Z,98837.10
2023-01-11T02:10:53.337Z,98840.02
2023-01-11T02:11:58.798Z,98840.69
2023-01-11T02:13:05.634Z,98839.21
2023-01-11T02:14:16.538Z,98840.33
2023-01-11T02:15:21.624Z,98840.88
2023-01-11T02:16:23.732Z,98836.86
2023-01-11T02:17:25.647Z,98836.21
2023-01-11T02:18:27.547Z,98839.66
2023-01-11T02:20:07.097Z,98841.41
2023-01-11T02:22:01.238Z,98842.29
2023-01-11T02:23:40.915Z,98837.34
2023-01-11T02:25:29.093Z,98838.00
2023-01-11T02:26:49.395Z,98839.84
2023-01-11T02:28:16.131Z,98841.15
2023-01-11T02:29:44.283Z,98839.83
2023-01-11T02:31:21.995Z,98842.46
2023-01-11T02:32:53.400Z,98842.88
2023-01-11T02:34:17.246Z,98845.47
2023-01-11T02:35:57.221Z,98841.96
2023-01-11T02:37:18.070Z,98842.89
2023-01-11T02:38:40.732Z,98840.02
2023-01-11T02:39:55.161Z,98838.09
2023-01-11T02:41:19.400Z,98838.39
2023-01-11T02:43:02.438Z,98843.56
2023-01-11T02:44:33.169Z,98846.43
2023-01-11T02:45:52.710Z,98846.86
2023-01-11T02:47:04.865Z,98848.44
2023-01-11T02:48:50.052Z,98848.17
2023-01-11T02:50:18.020Z,98848.14
2023-01-11T02:51:35.748Z,98848.95
2023-01-11T02:52:54.955Z,98848.95
2023-01-11T02:54:07.149Z,98845.02
2023-01-11T02:55:15.538Z,98843.98
2023-01-11T02:56:23.428Z,98843.84
2023-01-11T02:57:29.494Z,98844.68
2023-01-11T02:58:38.916Z,98848.75
2023-01-11T02:59:42.331Z,98846.98
2023-01-11T03:00:46.658Z,98845.38
2023-01-11T03:01:53.415Z,98847.04
2023-01-11T03:03:25.008Z,98848.55
2023-01-11T03:04:36.824Z,98848.30
2023-01-11T03:05:54.304Z,98846.40
2023-01-11T03:07:23.648Z,98847.79
2023-01-11T03:08:56.209Z,98849.97
2023-01-11T03:10:06.977Z,98850.36
2023-01-11T03:11:37.443Z,98849.16
2023-01-11T03:13:24.903Z,98845.48
2023-01-11T03:14:59.435Z,98846.23
2023-01-11T03:16:09.450Z,98846.73
2023-01-11T03:17:22.237Z,98841.67
2023-01-11T03:18:58.719Z,98838.45
2023-01-11T03:20:19.524Z,98837.43
2023-01-11T03:21:34.703Z,98834.36
2023-01-11T03:23:02.969Z,98833.79
2023-01-11T03:24:22.228Z,98830.97
2023-01-11T03:25:40.790Z,98830.85
2023-01-11T03:27:01.788Z,98831.95
2023-01-11T03:28:22.105Z,98832.90
2023-01-11T03:29:49.926Z,98834.28
2023-01-11T03:31:26.385Z,98832.86
2023-01-11T03:32:54.863Z,98833.85
2023-01-11T03:34:25.393Z,98834.79
2023-01-11T03:35:39.644Z,98834.96
2023-01-11T03:37:06.847Z,98833.39
2023-01-11T03:38:20.645Z,98830.84
2023-01-11T03:39:32.026Z,98828.68
2023-01-11T03:40:41.632Z,98827.18
2023-01-11T03:41:46.214Z,98828.38
2023-01-11T03:43:11.628Z,98827.61
2023-01-11T03:44:18.511Z,98825.09
2023-01-11T03:45:21.218Z,98827.33
2023-01-11T03:46:29.388Z,98828.12
2023-01-11T03:47:35.237Z,98828.70
2023-01-11T03:48:47.583Z,98828.99
2023-01-11T03:50:07.055Z,98829.21
2023-01-11T03:51:14.207Z,98828.08
2023-01-11T03:52:23.043Z,98829.45
2023-01-11T03:53:29.864Z,98825.33
2023-01-11T03:54:33.981Z,98825.63
2023-01-11T03:55:40.746Z,98823.32
2023-01-11T03:57:06.188Z,98822.90
2023-01-11T03:58:09.604Z,98820.05
2023-01-11T03:59:12.188Z,98816.79
2023-01-11T04:00:14.328Z,98820.42
2023-01-11T04:01:16.883Z,98814.59
2023-01-11T04:02:22.650Z,98818.16
2023-01-11T04:03:27.051Z,98815.30
2023-01-11T04:04:29.614Z,98812.82
2023-01-11T04:05:34.159Z,98815.16
2023-01-11T04:06:38.414Z,98815.23
2023-01-11T04:07:40.273Z,98820.41
2023-01-11T04:08:42.175Z,98818.56
2023-01-11T04:09:44.737Z,98817.50
2023-01-11T04:10:46.648Z,98819.10
2023-01-11T04:11:48.552Z,98817.33
2023-01-11T04:12:51.062Z,98815.36
2023-01-11T04:13:53.001Z,98814.58
2023-01-11T04:14:54.978Z,98813.17
2023-01-11T04:15:56.871Z,98814.25
2023-01-11T04:16:58.814Z,98811.65
2023-01-11T04:18:05.029Z,98813.92
2023-01-11T04:19:06.808Z,98811.87
2023-01-11T04:20:11.031Z,98807.98
2023-01-11T04:21:13.112Z,98810.99
2023-01-11T04:22:15.061Z,98809.89
2023-01-11T04:23:16.898Z,98809.94
2023-01-11T04:24:19.170Z,98808.56
2023-01-11T04:25:20.905Z,98809.70
2023-01-11T04:26:23.050Z,98809.64
2023-01-11T04:27:25.066Z,98808.24
2023-01-11T04:28:26.897Z,98810.73
2023-01-11T04:29:28.700Z,98807.11
2023-01-11T04:30:30.571Z,98806.70
2023-01-11T04:31:33.106Z,98810.11
2023-01-11T04:32:35.084Z,98809.09
2023-01-11T04:33:37.282Z,98807.26
2023-01-11T04:34:39.111Z,98808.10
2023-01-11T04:35:41.295Z,98807.17
2023-01-11T04:36:43.197Z,98805.02
2023-01-11T04:37:45.193Z,98803.20
2023-01-11T04:38:47.066Z,98799.35
2023-01-11T04:39:48.999Z,98799.26
2023-01-11T04:41:11.558Z,98797.79
2023-01-11T04:42:19.417Z,98794.43
2023-01-11T04:43:21.270Z,98796.52
2023-01-11T04:44:23.210Z,98795.83
2023-01-11T04:45:25.175Z,98797.58
2023-01-11T04:46:27.027Z,98801.11
2023-01-11T04:47:29.074Z,98799.00
2023-01-11T04:48:30.868Z,98800.92
2023-01-11T04:49:32.673Z,98801.46
2023-01-11T04:50:34.647Z,98801.58
2023-01-11T04:51:36.604Z,98800.89
2023-01-11T04:52:40.715Z,98805.36
2023-01-11T04:53:42.862Z,98803.41
2023-01-11T04:54:46.041Z,98804.61
2023-01-11T04:55:47.860Z,98804.55
2023-01-11T04:56:49.614Z,98805.00
2023-01-11T04:57:51.967Z,98802.96
2023-01-11T04:58:54.076Z,98804.91
2023-01-11T04:59:55.860Z,98804.16
2023-01-11T05:00:57.754Z,98807.51
2023-01-11T05:01:59.655Z,98802.86
2023-01-11T05:03:01.440Z,98803.23
2023-01-11T05:04:03.790Z,98803.44
2023-01-11T05:05:07.581Z,98802.44
2023-01-11T05:06:09.858Z,98806.73
2023-01-11T05:07:12.050Z,98802.30
2023-01-11T05:08:13.809Z,98803.93
2023-01-11T05:09:18.227Z,98803.77
2023-01-11T05:10:21.099Z,98802.73
2023-01-11T05:11:23.080Z,98803.98
2023-01-11T05:12:25.456Z,98801.64
2023-01-11T05:13:43.598Z,98800.73
2023-01-11T05:14:45.571Z,98802.58
2023-01-11T05:15:48.076Z,98802.81
2023-01-11T05:16:50.136Z,98802.98
2023-01-11T05:17:52.413Z,98801.00
2023-01-11T05:18:57.395Z,98802.90
2023-01-11T05:19:59.347Z,98801.17
2023-01-11T05:21:02.275Z,98799.20
2023-01-11T05:22:04.111Z,98796.50
2023-01-11T05:23:05.930Z,98795.27
2023-01-11T05:24:12.789Z,98796.83
2023-01-11T05:25:14.756Z,98789.67
2023-01-11T05:26:20.516Z,98790.23
2023-01-11T05:27:22.425Z,98791.05
2023-01-11T05:28:24.292Z,98791.09
2023-01-11T05:29:26.652Z,98790.40
2023-01-11T05:30:29.112Z,98795.25
2023-01-11T05:31:32.953Z,98790.90
2023-01-11T05:32:34.732Z,98790.71
2023-01-11T05:33:36.890Z,98795.79
2023-01-11T05:34:38.789Z,98792.47
2023-01-11T05:35:40.857Z,98791.58
2023-01-11T05:36:44.099Z,98788.88
2023-01-11T05:37:45.985Z,98790.45
2023-01-11T05:38:50.057Z,98788.17
2023-01-11T05:39:52.097Z,98787.05
2023-01-11T05:40:59.026Z,98782.45
2023-01-11T05:42:00.879Z,98784.16
2023-01-11T05:43:02.743Z,98777.67
2023-01-11T05:44:23.878Z,98774.59
2023-01-11T05:45:35.696Z,98772.35
2023-01-11T05:46:40.199Z,98772.89
2023-01-11T05:47:42.075Z,98771.17
2023-01-11T05:48:43.891Z,98771.09
2023-01-11T05:49:45.770Z,98770.23
2023-01-11T05:50:56.465Z,98770.66
2023-01-11T05:51:58.331Z,98767.99
2023-01-11T05:53:00.142Z,98762.97
2023-01-11T05:54:03.956Z,98763.39
2023-01-11T05:55:06.939Z,98763.39
2023-01-11T05:56:09.142Z,98764.45
2023-01-11T05:57:11.948Z,98762.48
2023-01-11T05:58:13.807Z,98761.75
2023-01-11T05:59:15.650Z,98759.21
2023-01-11T06:00:17.995Z,98760.19
2023-01-11T06:01:22.759Z,98760.36
2023-01-11T06:02:24.781Z,98759.89
2023-01-11T06:03:27.498Z,98757.45
2023-01-11T06:04:29.592Z,98761.27
2023-01-11T06:05:34.850Z,98762.73
2023-01-11T06:06:37.086Z,98756.27
2023-01-11T06:07:40.114Z,98756.89
2023-01-11T06:08:42.063Z,98752.95
2023-01-11T06:09:43.884Z,98755.96
2023-01-11T06:10:54.219Z,98757.27
2023-01-11T06:11:56.123Z,98754.60
2023-01-11T06:13:18.060Z,98751.77
2023-01-11T06:14:19.941Z,98752.02
2023-01-11T06:15:21.792Z,98754.48
2023-01-11T06:16:23.862Z,98753.40
2023-01-11T06:17:26.551Z,98753.66
2023-01-11T06:18:30.586Z,98751.30
2023-01-11T06:19:32.461Z,98749.11
2023-01-11T06:20:34.366Z,98748.27
2023-01-11T06:21:36.207Z,98747.63
2023-01-11T06:22:38.021Z,98747.45
2023-01-11T06:23:43.304Z,98750.50
2023-01-11T06:24:45.143Z,98754.55
2023-01-11T06:25:47.363Z,98754.80
2023-01-11T06:26:53.034Z,98755.09
2023-01-11T06:27:54.871Z,98758.30
2023-01-11T06:28:57.014Z,98753.33
2023-01-11T06:29:58.804Z,98756.48
2023-01-11T06:31:01.443Z,98755.75
2023-01-11T06:32:03.625Z,98755.94
2023-01-11T06:33:07.066Z,98757.44
2023-01-11T06:34:09.237Z,98756.45
2023-01-11T06:35:12.560Z,98757.09
2023-01-11T06:36:16.148Z,98751.71
2023-01-11T06:37:18.052Z,98752.73
2023-01-11T06:38:22.258Z,98758.79
2023-01-11T06:39:24.112Z,98758.02
2023-01-11T06:40:26.106Z,98759.83
2023-01-11T06:41:28.959Z,98759.12
2023-01-11T06:42:30.842Z,98753.39
2023-01-11T06:43:32.973Z,98756.02
2023-01-11T06:44:36.072Z,98750.95
2023-01-11T06:45:41.259Z,98746.50
2023-01-11T06:46:43.041Z,98745.26
2023-01-11T06:47:44.829Z,98745.70
2023-01-11T06:48:47.505Z,98745.09
2023-01-11T06:49:49.301Z,98744.35
2023-01-11T06:50:55.304Z,98740.50
2023-01-11T06:51:57.135Z,98740.11
2023-01-11T06:53:03.833Z,98737.14
2023-01-11T06:54:05.744Z,98738.33
2023-01-11T06:55:08.158Z,98734.87
2023-01-11T06:56:16.675Z,98732.88
2023-01-11T06:57:18.499Z,98727.24
2023-01-11T06:58:22.442Z,98727.41
2023-01-11T06:59:24.641Z,98726.89
2023-01-11T07:00:26.684Z,98726.36
2023-01-11T07:01:30.545Z,98726.19
2023-01-11T07:02:32.642Z,98730.95
2023-01-11T07:03:34.798Z,98726.06
2023-01-11T07:04:36.802Z,98728.61
2023-01-11T07:05:39.598Z,98732.05
2023-01-11T07:06:41.447Z,98729.75
2023-01-11T07:07:44.239Z,98727.60
2023-01-11T07:08:46.214Z,98729.98
2023-01-11T07:09:48.431Z,98725.60
2023-01-11T07:10:50.485Z,98729.55
2023-01-11T07:11:52.444Z,98725.69
2023-01-11T07:12:54.756Z,98724.75
2023-01-11T07:13:56.590Z,98728.45
2023-01-11T07:14:58.457Z,98726.92
2023-01-11T07:16:00.410Z,98728.08
2023-01-11T07:17:02.385Z,98729.73
2023-01-11T07:18:04.496Z,98726.77
2023-01-11T07:19:06.913Z,98724.19
2023-01-11T07:20:10.139Z,98724.98
2023-01-11T07:21:12.008Z,98724.54
2023-01-11T07:22:14.900Z,98722.48
2023-01-11T07:23:16.881Z,98723.52
2023-01-11T07:24:19.767Z,98722.00
2023-01-11T07:25:22.116Z,98725.20
2023-01-11T07:26:26.596Z,98720.41
2023-01-11T07:27:28.793Z,98722.58
2023-01-11T07:28:30.845Z,98721.17
2023-01-11T07:29:32.692Z,98721.73
2023-01-11T07:30:55.457Z,98722.71
2023-01-11T07:31:58.741Z,98724.33
2023-01-11T07:33:01.787Z,98721.16
2023-01-11T07:34:04.307Z,98720.95
2023-01-11T07:35:07.058Z,98723.20
2023-01-11T07:36:09.593Z,98726.52
2023-01-11T07:37:29.270Z,98721.00
2023-01-11T07:38:32.160Z,98726.42
2023-01-11T07:39:43.391Z,98725.14
2023-01-11T07:40:45.935Z,98729.61
2023-01-11T07:42:06.577Z,98725.55
2023-01-11T07:43:15.130Z,98730.63
2023-01-11T07:44:17.549Z,98730.99
2023-01-11T07:45:19.461Z,98733.90
2023-01-11T07:46:21.460Z,98725.15
2023-01-11T07:47:23.885Z,98723.41
2023-01-11T07:48:26.897Z,98723.94
2023-01-11T07:49:29.609Z,98726.06
2023-01-11T07:50:31.955Z,98725.74
2023-01-11T07:51:33.767Z,98725.77
2023-01-11T07:52:35.893Z,98727.80
2023-01-11T07:53:37.914Z,98723.13
2023-01-11T07:54:39.684Z,98732.56
2023-01-11T07:55:41.912Z,98729.89
2023-01-11T07:56:44.002Z,98727.61
2023-01-11T07:57:45.861Z,98731.48
2023-01-11T07:58:47.782Z,98732.27
2023-01-11T07:59:49.667Z,98729.75
2023-01-11T08:00:51.932Z,98730.26
2023-01-11T08:01:54.366Z,98733.12
2023-01-11T08:02:56.342Z,98733.16
2023-01-11T08:04:00.116Z,98734.55
2023-01-11T08:05:03.271Z,98733.45
2023-01-11T08:06:05.905Z,98730.98
2023-01-11T08:07:07.737Z,98731.11
2023-01-11T08:08:09.968Z,98728.70
2023-01-11T08:09:12.035Z,98723.35
2023-01-11T08:10:14.335Z,98724.27
2023-01-11T08:11:34.691Z,98726.83
2023-01-11T08:13:03.960Z,98725.31
2023-01-11T08:14:24.655Z,98724.14
2023-01-11T08:15:26.501Z,98720.79
2023-01-11T08:16:28.423Z,98720.58
2023-01-11T08:17:30.682Z,98717.95
2023-01-11T08:18:32.691Z,98716.45
2023-01-11T08:19:34.860Z,98718.71
2023-01-11T08:20:37.485Z,98718.14
2023-01-11T08:21:39.292Z,98715.38
2023-01-11T08:22:41.051Z,98718.23
2023-01-11T08:23:43.166Z,98717.06
2023-01-11T08:24:44.982Z,98716.86
2023-01-11T08:25:47.405Z,98718.51
2023-01-11T08:26:49.220Z,98718.32
2023-01-11T08:27:51.123Z,98716.41
2023-01-11T08:28:55.029Z,98714.48
2023-01-11T08:29:56.826Z,98716.96
2023-01-11T08:30:58.620Z,98712.21
2023-01-11T08:32:00.771Z,98712.39
2023-01-11T08:33:04.222Z,98711.40
2023-01-11T08:34:06.277Z,98711.65
2023-01-11T08:35:08.684Z,98713.39
2023-01-11T08:36:12.904Z,98717.57
2023-01-11T08:37:14.916Z,98715.91
2023-01-11T08:38:16.651Z,98717.30
2023-01-11T08:39:18.501Z,98717.38
2023-01-11T08:40:23.592Z,98715.53
2023-01-11T08:41:25.894Z,98713.34
2023-01-11T08:42:27.648Z,98713.55
2023-01-11T08:43:32.390Z,98712.21
2023-01-11T08:44:34.828Z,98708.75
2023-01-11T08:45:36.853Z,98711.29
2023-01-11T08:46:38.820Z,98706.31
2023-01-11T08:47:40.619Z,98707.27
2023-01-11T08:48:42.944Z,98706.33
2023-01-11T08:49:44.913Z,98706.46
2023-01-11T08:50:46.745Z,98702.36
2023-01-11T08:51:48.511Z,98704.55
2023-01-11T08:52:51.920Z,98706.39
2023-01-11T08:53:53.898Z,98710.08
2023-01-11T08:54:55.925Z,98706.30
2023-01-11T08:55:57.790Z,98707.73
2023-01-11T08:56:59.560Z,98708.30
2023-01-11T08:58:01.435Z,98708.46
2023-01-11T08:59:05.324Z,98707.27
2023-01-11T09:00:08.571Z,98704.00
2023-01-11T09:01:12.120Z,98705.39
2023-01-11T09:02:14.005Z,98704.27
2023-01-11T09:03:16.047Z,98705.05
2023-01-11T09:04:24.798Z,98706.16
2023-01-11T09:05:26.886Z,98705.41
2023-01-11T09:06:28.734Z,98698.88
2023-01-11T09:07:30.489Z,98700.45
2023-01-11T09:08:32.282Z,98697.69
2023-01-11T09:09:34.065Z,98696.57
2023-01-11T09:10:35.964Z,98699.75
2023-01-11T09:11:57.026Z,98699.64
2023-01-11T09:12:59.752Z,98694.58
2023-01-11T09:14:01.851Z,98698.02
2023-01-11T09:15:06.019Z,98697.94
2023-01-11T09:16:08.038Z,98696.83
2023-01-11T09:17:10.222Z,98699.98
2023-01-11T09:18:12.946Z,98696.55
2023-01-11T09:19:15.109Z,98697.33
2023-01-11T09:20:17.800Z,98696.23
2023-01-11T09:21:19.843Z,98697.22
2023-01-11T09:22:21.865Z,98699.27
2023-01-11T09:23:23.754Z,98699.28
2023-01-11T09:24:25.594Z,98699.41
2023-01-11T09:25:27.496Z,98700.03
2023-01-11T09:26:29.666Z,98698.92
2023-01-11T09:27:31.651Z,98699.31
2023-01-11T09:28:33.424Z,98698.30
2023-01-11T09:29:37.282Z,98698.67
2023-01-11T09:30:39.552Z,98691.38
2023-01-11T09:31:41.472Z,98691.51
2023-01-11T09:32:43.497Z,98694.81
2023-01-11T09:33:45.394Z,98686.92
2023-01-11T09:34:49.623Z,98688.55
2023-01-11T09:35:52.285Z,98689.42
2023-01-11T09:36:56.935Z,98688.13
2023-01-11T09:37:59.958Z,98690.14
2023-01-11T09:39:05.778Z,98684.84
2023-01-11T09:40:20.649Z,98681.83
2023-01-11T09:41:31.921Z,98682.83
2023-01-11T09:42:43.133Z,98679.54
2023-01-11T09:44:10.450Z,98675.73
2023-01-11T09:45:28.552Z,98672.45
2023-01-11T09:46:33.815Z,98673.23
2023-01-11T09:48:01.257Z,98672.73
2023-01-11T09:49:03.699Z,98671.16
2023-01-11T09:50:17.277Z,98668.48
2023-01-11T09:51:20.753Z,98667.48
2023-01-11T09:52:33.259Z,98668.77
2023-01-11T09:53:38.340Z,98664.53
2023-01-11T09:54:40.720Z,98662.28
2023-01-11T09:55:49.609Z,98666.05
2023-01-11T09:57:18.480Z,98665.05
2023-01-11T09:58:55.063Z,98664.48
2023-01-11T10:00:10.210Z,98666.27
2023-01-11T10:01:25.972Z,98659.80
2023-01-11T10:02:48.367Z,98656.65
2023-01-11T10:04:37.463Z,98653.27
2023-01-11T10:06:06.320Z,98656.23
2023-01-11T10:07:43.359Z,98653.42
2023-01-11T10:18:30.654Z,98648.62
2023-01-11T10:18:39.202Z,98644.58
2023-01-11T10:18:39.850Z,98648.04
2023-01-11T10:19:41.067Z,98643.48
2023-01-11T10:20:52.188Z,98644.19
2023-01-11T10:22:19.737Z,98635.72
2023-01-11T10:23:41.901Z,98629.55
2023-01-11T10:24:50.578Z,98630.19
2023-01-11T10:25:56.754Z,98632.05
2023-01-11T10:27:03.922Z,98627.82
2023-01-11T10:28:20.148Z,98628.00
2023-01-11T10:29:50.745Z,98625.40
2023-01-11T10:30:59.377Z,98629.70
2023-01-11T10:32:02.640Z,98631.52
2023-01-11T10:33:29.371Z,98627.41
2023-01-11T10:35:14.607Z,98629.98
2023-01-11T10:36:50.906Z,98631.45
2023-01-11T10:38:22.106Z,98628.30
2023-01-11T10:40:04.943Z,98631.24
2023-01-11T10:41:43.133Z,98627.15
2023-01-11T10:43:09.344Z,98628.75
2023-01-11T10:44:52.776Z,98629.39
2023-01-11T10:47:20.503Z,98624.96
2023-01-11T10:48:37.108Z,98618.35
2023-01-11T10:49:55.978Z,98620.05
2023-01-11T10:51:12.096Z,98616.08
2023-01-11T10:52:41.900Z,98611.54
2023-01-11T10:54:06.551Z,98607.02
2023-01-11T10:55:13.309Z,98610.09
2023-01-11T10:56:36.332Z,98607.88
2023-01-11T10:58:12.235Z,98606.66
2023-01-11T10:59:26.899Z,98609.36
2023-01-11T11:00:44.924Z,98608.19
2023-01-11T11:01:59.534Z,98612.35
2023-01-11T11:03:23.157Z,98610.70
2023-01-11T11:04:50.102Z,98607.25
2023-01-11T11:05:59.579Z,98608.25
2023-01-11T11:07:18.089Z,98599.42
2023-01-11T11:08:40.304Z,98598.93
2023-01-11T11:10:26.048Z,98598.36
2023-01-11T11:11:36.514Z,98594.30
2023-01-11T11:12:55.747Z,98590.22
2023-01-11T11:14:00.792Z,98587.96
2023-01-11T11:15:13.408Z,98585.27
2023-01-11T11:16:24.388Z,98584.55
2023-01-11T11:17:36.346Z,98582.04
2023-01-11T11:18:39.191Z,98582.42
2023-01-11T11:19:41.981Z,98578.64
2023-01-11T11:20:46.467Z,98576.49
2023-01-11T11:21:52.476Z,98571.95
2023-01-11T11:22:56.340Z,98576.25
2023-01-11T11:24:22.033Z,98570.63
2023-01-11T11:25:41.399Z,98566.92
2023-01-11T11:26:52.351Z,98561.80
2023-01-11T11:28:04.624Z,98563.22
2023-01-11T11:29:10.041Z,98560.45
2023-01-11T11:30:14.540Z,98561.25
2023-01-11T11:31:16.406Z,98557.45
2023-01-11T11:32:36.761Z,98559.00
2023-01-11T11:33:41.170Z,98559.57
2023-01-11T11:34:48.779Z,98558.74
2023-01-11T11:36:04.839Z,98553.86
2023-01-11T11:37:09.357Z,98551.90
2023-01-11T11:38:23.531Z,98548.45
2023-01-11T11:39:31.114Z,98549.46
2023-01-11T11:40:38.464Z,98549.52
2023-01-11T11:42:04.780Z,98547.50
2023-01-11T11:43:24.244Z,98547.58
2023-01-11T11:44:28.457Z,98543.63
2023-01-11T11:45:30.450Z,98542.25
2023-01-11T11:46:32.282Z,98540.61
2023-01-11T11:47:34.140Z,98535.66
2023-01-11T11:48:36.173Z,98534.84
2023-01-11T11:49:39.828Z,98537.13
2023-01-11T11:50:45.106Z,98530.32
2023-01-11T11:51:48.581Z,98526.93
2023-01-11T11:53:02.973Z,98526.89
2023-01-11T11:54:04.985Z,98524.05
2023-01-11T11:55:10.106Z,98520.04
2023-01-11T11:56:24.819Z,98521.48
2023-01-11T11:57:33.779Z,98516.66
2023-01-11T11:58:42.424Z,98513.31
2023-01-11T11:59:48.488Z,98510.05
2023-01-11T12:00:52.940Z,98503.23
2023-01-11T12:02:03.719Z,98504.69
2023-01-11T12:03:21.827Z,98499.98
2023-01-11T12:04:38.111Z,98498.60
2023-01-11T12:06:09.225Z,98501.02
2023-01-11T12:07:16.431Z,98493.48
2023-01-11T12:08:19.158Z,98492.77
2023-01-11T12:09:34.075Z,98492.36
2023-01-11T12:10:35.971Z,98488.10
2023-01-11T12:11:42.179Z,98486.02
2023-01-11T12:12:55.938Z,98481.21
2023-01-11T12:14:21.167Z,98481.86
2023-01-11T12:15:31.433Z,98473.46
2023-01-11T12:16:39.784Z,98470.58
2023-01-11T12:17:43.231Z,98473.48
2023-01-11T12:18:45.097Z,98471.11
2023-01-11T12:19:47.836Z,98473.15
2023-01-11T12:20:49.692Z,98474.16
2023-01-11T12:21:51.818Z,98470.48
2023-01-11T12:23:18.541Z,98472.77
2023-01-11T12:24:20.969Z,98473.14
2023-01-11T12:25:25.564Z,98471.78
2023-01-11T12:26:40.793Z,98473.23
2023-01-11T12:28:09.000Z,98465.02
2023-01-11T12:29:24.112Z,98463.63
2023-01-11T12:30:46.850Z,98460.42
2023-01-11T12:32:04.969Z,98458.55
2023-01-11T12:33:44.736Z,98458.50
2023-01-11T12:35:16.169Z,98456.94
2023-01-11T12:36:36.396Z,98453.49
2023-01-11T12:38:16.134Z,98447.36
2023-01-11T12:39:24.931Z,98447.50
2023-01-11T12:40:32.794Z,98444.08
2023-01-11T12:41:53.481Z,98442.11
2023-01-11T12:43:23.190Z,98441.39
2023-01-11T12:44:48.744Z,98436.57
2023-01-11T12:46:28.541Z,98434.08
2023-01-11T12:48:08.625Z,98427.05
2023-01-11T12:49:36.386Z,98427.39
2023-01-11T12:50:52.621Z,98424.70
2023-01-11T12:52:27.791Z,98424.34
2023-01-11T12:53:39.697Z,98425.95
2023-01-11T12:55:01.610Z,98425.89
2023-01-11T12:56:25.298Z,98425.78
2023-01-11T12:57:39.536Z,98419.04
2023-01-11T12:59:10.390Z,98420.23
2023-01-11T13:00:20.136Z,98417.73
2023-01-11T13:01:30.467Z,98414.48
2023-01-11T13:02:56.763Z,98410.35
2023-01-11T13:04:28.259Z,98412.88
2023-01-11T13:05:57.186Z,98405.10
2023-01-11T13:07:14.874Z,98396.58
2023-01-11T13:08:25.236Z,98399.02
2023-01-11T13:09:32.454Z,98397.30
2023-01-11T13:11:02.184Z,98403.09
2023-01-11T13:12:27.627Z,98396.21
2023-01-11T13:13:34.478Z,98397.83
2023-01-11T13:14:57.812Z,98395.80
2023-01-11T13:16:25.948Z,98385.91
2023-01-11T13:18:01.612Z,98387.35
2023-01-11T13:19:37.329Z,98387.77
2023-01-11T13:21:01.227Z,98381.38
2023-01-11T13:22:16.111Z,98380.55
2023-01-11T13:23:54.739Z,98377.79
2023-01-11T13:25:01.992Z,98375.96
2023-01-11T13:26:17.508Z,98378.63
2023-01-11T13:27:24.466Z,98378.98
2023-01-11T13:28:38.340Z,98375.30
2023-01-11T13:29:45.526Z,98374.92
2023-01-11T13:30:49.733Z,98375.91
2023-01-11T13:31:54.360Z,98379.37
2023-01-11T13:33:04.591Z,98380.15
2023-01-11T13:34:27.895Z,98382.16
2023-01-11T13:35:49.825Z,98388.05
2023-01-11T13:37:11.550Z,98389.02